sensor_id;sensor_type;location;lat;lon;timestamp;P1;durP1;ratioP1;P2;durP2;ratioP2
13469;SDS011;6807;48.682;9.032;2022-12-16T00:01:02;41.28;;;22.02;;
13469;SDS011;6807;48.682;9.032;2022-12-16T00:03:32;41.95;;;24.40;;
13469;SDS011;6807;48.682;9.032;2022-12-16T00:06:01;45.67;;;23.98;;
13469;SDS011;6807;48.682;9.032;2022-12-16T00:08:32;42.22;;;24.08;;
13469;SDS011;6807;48.682;9.032;2022-12-16T00:11:01;38.33;;;22.40;;
13469;SDS011;6807;48.682;9.032;2022-12-16T00:13:29;45.38;;;23.35;;
13469;SDS011;6807;48.682;9.032;2022-12-16T00:15:58;37.88;;;21.83;;
13469;SDS011;6807;48.682;9.032;2022-12-16T00:18:30;37.50;;;21.25;;
13469;SDS011;6807;48.682;9.032;2022-12-16T00:20:57;36.80;;;22.45;;
13469;SDS011;6807;48.682;9.032;2022-12-16T00:23:25;41.55;;;22.77;;
13469;SDS011;6807;48.682;9.032;2022-12-16T00:25:56;38.95;;;22.17;;
13469;SDS011;6807;48.682;9.032;2022-12-16T00:28:24;45.28;;;23.35;;
13469;SDS011;6807;48.682;9.032;2022-12-16T00:33:30;39.97;;;21.95;;
13469;SDS011;6807;48.682;9.032;2022-12-16T00:35:58;42.28;;;22.02;;
13469;SDS011;6807;48.682;9.032;2022-12-16T00:38:26;40.60;;;23.40;;
13469;SDS011;6807;48.682;9.032;2022-12-16T00:40:53;45.88;;;23.10;;
13469;SDS011;6807;48.682;9.032;2022-12-16T00:43:22;40.00;;;22.88;;
13469;SDS011;6807;48.682;9.032;2022-12-16T00:45:49;40.83;;;23.45;;
13469;SDS011;6807;48.682;9.032;2022-12-16T00:48:24;37.55;;;22.52;;
13469;SDS011;6807;48.682;9.032;2022-12-16T00:50:52;43.70;;;22.45;;
13469;SDS011;6807;48.682;9.032;2022-12-16T00:53:22;36.38;;;21.73;;
13469;SDS011;6807;48.682;9.032;2022-12-16T00:55:50;38.58;;;21.83;;
13469;SDS011;6807;48.682;9.032;2022-12-16T00:58:17;41.20;;;21.83;;
13469;SDS011;6807;48.682;9.032;2022-12-16T01:00:46;40.30;;;22.95;;
13469;SDS011;6807;48.682;9.032;2022-12-16T01:03:19;38.88;;;22.40;;
13469;SDS011;6807;48.682;9.032;2022-12-16T01:05:47;40.88;;;22.55;;
13469;SDS011;6807;48.682;9.032;2022-12-16T01:10:49;41.67;;;22.40;;
13469;SDS011;6807;48.682;9.032;2022-12-16T01:13:17;43.55;;;22.42;;
13469;SDS011;6807;48.682;9.032;2022-12-16T01:15:44;43.85;;;22.90;;
13469;SDS011;6807;48.682;9.032;2022-12-16T01:18:14;38.15;;;22.33;;
13469;SDS011;6807;48.682;9.032;2022-12-16T01:20:43;39.95;;;21.70;;
13469;SDS011;6807;48.682;9.032;2022-12-16T01:23:13;36.22;;;19.42;;
13469;SDS011;6807;48.682;9.032;2022-12-16T01:25:40;41.55;;;23.35;;
13469;SDS011;6807;48.682;9.032;2022-12-16T01:28:06;41.72;;;23.02;;
13469;SDS011;6807;48.682;9.032;2022-12-16T01:30:34;43.58;;;23.77;;
13469;SDS011;6807;48.682;9.032;2022-12-16T01:33:05;42.75;;;21.85;;
13469;SDS011;6807;48.682;9.032;2022-12-16T01:35:32;45.80;;;22.27;;
13469;SDS011;6807;48.682;9.032;2022-12-16T01:37:59;44.22;;;23.27;;
13469;SDS011;6807;48.682;9.032;2022-12-16T01:40:25;43.60;;;24.10;;
13469;SDS011;6807;48.682;9.032;2022-12-16T01:42:53;39.45;;;22.08;;
13469;SDS011;6807;48.682;9.032;2022-12-16T01:45:28;42.58;;;22.27;;
13469;SDS011;6807;48.682;9.032;2022-12-16T01:47:58;39.42;;;22.00;;
13469;SDS011;6807;48.682;9.032;2022-12-16T01:50:33;41.92;;;22.05;;
13469;SDS011;6807;48.682;9.032;2022-12-16T01:53:02;36.70;;;20.55;;
13469;SDS011;6807;48.682;9.032;2022-12-16T01:55:31;40.53;;;20.80;;
13469;SDS011;6807;48.682;9.032;2022-12-16T01:58:04;40.30;;;22.45;;
13469;SDS011;6807;48.682;9.032;2022-12-16T02:00:35;35.72;;;22.17;;
13469;SDS011;6807;48.682;9.032;2022-12-16T02:03:04;43.17;;;22.63;;
13469;SDS011;6807;48.682;9.032;2022-12-16T02:05:33;44.42;;;21.55;;
13469;SDS011;6807;48.682;9.032;2022-12-16T02:08:05;42.50;;;22.73;;
13469;SDS011;6807;48.682;9.032;2022-12-16T02:10:45;35.05;;;20.52;;
13469;SDS011;6807;48.682;9.032;2022-12-16T02:13:21;36.05;;;20.00;;
13469;SDS011;6807;48.682;9.032;2022-12-16T02:15:58;42.28;;;21.88;;
13469;SDS011;6807;48.682;9.032;2022-12-16T02:18:35;39.40;;;21.05;;
13469;SDS011;6807;48.682;9.032;2022-12-16T02:21:13;37.85;;;22.52;;
13469;SDS011;6807;48.682;9.032;2022-12-16T02:27:19;42.20;;;21.45;;
13469;SDS011;6807;48.682;9.032;2022-12-16T02:30:20;37.25;;;19.33;;
13469;SDS011;6807;48.682;9.032;2022-12-16T02:32:57;42.92;;;22.45;;
13469;SDS011;6807;48.682;9.032;2022-12-16T02:35:38;40.80;;;21.30;;
13469;SDS011;6807;48.682;9.032;2022-12-16T02:38:11;36.85;;;20.40;;
13469;SDS011;6807;48.682;9.032;2022-12-16T02:40:47;42.13;;;21.77;;
13469;SDS011;6807;48.682;9.032;2022-12-16T02:43:21;41.70;;;21.83;;
13469;SDS011;6807;48.682;9.032;2022-12-16T02:46:01;34.22;;;20.10;;
13469;SDS011;6807;48.682;9.032;2022-12-16T02:48:30;41.25;;;21.88;;
13469;SDS011;6807;48.682;9.032;2022-12-16T02:50:57;39.72;;;20.85;;
13469;SDS011;6807;48.682;9.032;2022-12-16T02:53:24;41.13;;;21.85;;
13469;SDS011;6807;48.682;9.032;2022-12-16T02:55:54;34.38;;;20.55;;
13469;SDS011;6807;48.682;9.032;2022-12-16T02:58:30;39.88;;;20.90;;
13469;SDS011;6807;48.682;9.032;2022-12-16T03:01:07;40.80;;;20.15;;
13469;SDS011;6807;48.682;9.032;2022-12-16T03:03:45;34.30;;;19.58;;
13469;SDS011;6807;48.682;9.032;2022-12-16T03:06:20;38.60;;;20.48;;
13469;SDS011;6807;48.682;9.032;2022-12-16T03:08:50;36.70;;;20.48;;
13469;SDS011;6807;48.682;9.032;2022-12-16T03:11:19;33.95;;;19.15;;
13469;SDS011;6807;48.682;9.032;2022-12-16T03:13:47;35.97;;;21.50;;
13469;SDS011;6807;48.682;9.032;2022-12-16T03:16:20;39.10;;;22.48;;
13469;SDS011;6807;48.682;9.032;2022-12-16T03:18:51;30.65;;;17.88;;
13469;SDS011;6807;48.682;9.032;2022-12-16T03:21:22;39.35;;;20.90;;
13469;SDS011;6807;48.682;9.032;2022-12-16T03:23:55;37.78;;;19.23;;
13469;SDS011;6807;48.682;9.032;2022-12-16T03:26:27;33.75;;;18.23;;
13469;SDS011;6807;48.682;9.032;2022-12-16T03:29:02;29.45;;;18.77;;
13469;SDS011;6807;48.682;9.032;2022-12-16T03:31:35;29.58;;;17.05;;
13469;SDS011;6807;48.682;9.032;2022-12-16T03:34:13;34.67;;;19.70;;
13469;SDS011;6807;48.682;9.032;2022-12-16T03:36:50;36.70;;;19.60;;
13469;SDS011;6807;48.682;9.032;2022-12-16T03:39:21;36.28;;;18.63;;
13469;SDS011;6807;48.682;9.032;2022-12-16T03:41:51;37.22;;;20.10;;
13469;SDS011;6807;48.682;9.032;2022-12-16T03:44:22;34.92;;;19.15;;
13469;SDS011;6807;48.682;9.032;2022-12-16T03:46:51;35.97;;;18.75;;
13469;SDS011;6807;48.682;9.032;2022-12-16T03:49:20;33.30;;;19.23;;
13469;SDS011;6807;48.682;9.032;2022-12-16T03:51:48;31.17;;;19.45;;
13469;SDS011;6807;48.682;9.032;2022-12-16T03:54:15;35.42;;;19.65;;
13469;SDS011;6807;48.682;9.032;2022-12-16T03:56:43;34.10;;;19.60;;
13469;SDS011;6807;48.682;9.032;2022-12-16T03:59:10;34.47;;;19.17;;
13469;SDS011;6807;48.682;9.032;2022-12-16T04:01:38;32.35;;;19.50;;
13469;SDS011;6807;48.682;9.032;2022-12-16T04:04:07;34.08;;;18.73;;
13469;SDS011;6807;48.682;9.032;2022-12-16T04:06:34;33.33;;;19.25;;
13469;SDS011;6807;48.682;9.032;2022-12-16T04:09:01;33.80;;;19.30;;
13469;SDS011;6807;48.682;9.032;2022-12-16T04:11:29;35.03;;;19.75;;
13469;SDS011;6807;48.682;9.032;2022-12-16T04:14:13;31.90;;;17.25;;
13469;SDS011;6807;48.682;9.032;2022-12-16T04:16:58;34.67;;;19.60;;
13469;SDS011;6807;48.682;9.032;2022-12-16T04:19:45;36.08;;;19.77;;
13469;SDS011;6807;48.682;9.032;2022-12-16T04:22:30;34.42;;;17.60;;
13469;SDS011;6807;48.682;9.032;2022-12-16T04:25:20;34.47;;;19.88;;
13469;SDS011;6807;48.682;9.032;2022-12-16T04:27:50;34.58;;;20.15;;
13469;SDS011;6807;48.682;9.032;2022-12-16T04:30:18;30.40;;;18.63;;
13469;SDS011;6807;48.682;9.032;2022-12-16T04:32:48;36.88;;;19.58;;
13469;SDS011;6807;48.682;9.032;2022-12-16T04:35:36;37.13;;;18.67;;
13469;SDS011;6807;48.682;9.032;2022-12-16T04:38:21;30.67;;;18.30;;
13469;SDS011;6807;48.682;9.032;2022-12-16T04:44:02;35.15;;;18.70;;
13469;SDS011;6807;48.682;9.032;2022-12-16T04:46:47;27.90;;;15.75;;
13469;SDS011;6807;48.682;9.032;2022-12-16T04:49:40;30.75;;;17.33;;
13469;SDS011;6807;48.682;9.032;2022-12-16T04:52:26;35.42;;;16.80;;
13469;SDS011;6807;48.682;9.032;2022-12-16T04:55:10;28.00;;;14.00;;
13469;SDS011;6807;48.682;9.032;2022-12-16T04:58:06;25.73;;;14.82;;
13469;SDS011;6807;48.682;9.032;2022-12-16T05:00:50;24.95;;;15.45;;
13469;SDS011;6807;48.682;9.032;2022-12-16T05:03:40;25.35;;;14.95;;
13469;SDS011;6807;48.682;9.032;2022-12-16T05:06:30;27.08;;;14.63;;
13469;SDS011;6807;48.682;9.032;2022-12-16T05:09:17;25.75;;;14.35;;
13469;SDS011;6807;48.682;9.032;2022-12-16T05:14:51;31.02;;;16.17;;
13469;SDS011;6807;48.682;9.032;2022-12-16T05:17:35;27.52;;;15.80;;
13469;SDS011;6807;48.682;9.032;2022-12-16T05:20:20;26.17;;;13.35;;
13469;SDS011;6807;48.682;9.032;2022-12-16T05:23:04;27.30;;;14.13;;
13469;SDS011;6807;48.682;9.032;2022-12-16T05:25:50;27.15;;;14.93;;
13469;SDS011;6807;48.682;9.032;2022-12-16T05:28:40;35.90;;;16.13;;
13469;SDS011;6807;48.682;9.032;2022-12-16T05:31:25;25.58;;;14.23;;
13469;SDS011;6807;48.682;9.032;2022-12-16T05:34:09;27.58;;;15.38;;
13469;SDS011;6807;48.682;9.032;2022-12-16T05:36:54;27.77;;;14.15;;
13469;SDS011;6807;48.682;9.032;2022-12-16T05:39:38;25.40;;;15.57;;
13469;SDS011;6807;48.682;9.032;2022-12-16T05:42:24;26.10;;;14.32;;
13469;SDS011;6807;48.682;9.032;2022-12-16T05:45:09;35.83;;;17.30;;
13469;SDS011;6807;48.682;9.032;2022-12-16T05:48:00;25.27;;;15.13;;
13469;SDS011;6807;48.682;9.032;2022-12-16T05:50:48;26.77;;;13.73;;
13469;SDS011;6807;48.682;9.032;2022-12-16T05:53:35;32.38;;;19.67;;
13469;SDS011;6807;48.682;9.032;2022-12-16T05:56:19;26.98;;;16.73;;
13469;SDS011;6807;48.682;9.032;2022-12-16T05:59:05;23.08;;;14.23;;
13469;SDS011;6807;48.682;9.032;2022-12-16T06:01:50;25.05;;;14.32;;
13469;SDS011;6807;48.682;9.032;2022-12-16T06:04:46;27.10;;;14.65;;
13469;SDS011;6807;48.682;9.032;2022-12-16T06:07:30;27.55;;;17.88;;
13469;SDS011;6807;48.682;9.032;2022-12-16T06:10:16;23.92;;;14.32;;
13469;SDS011;6807;48.682;9.032;2022-12-16T06:13:03;25.55;;;13.30;;
13469;SDS011;6807;48.682;9.032;2022-12-16T06:15:50;23.95;;;13.82;;
13469;SDS011;6807;48.682;9.032;2022-12-16T06:18:35;18.27;;;11.55;;
13469;SDS011;6807;48.682;9.032;2022-12-16T06:21:19;24.20;;;12.98;;
13469;SDS011;6807;48.682;9.032;2022-12-16T06:24:04;20.83;;;12.63;;
13469;SDS011;6807;48.682;9.032;2022-12-16T06:26:49;20.75;;;11.82;;
13469;SDS011;6807;48.682;9.032;2022-12-16T06:29:33;19.65;;;11.43;;
13469;SDS011;6807;48.682;9.032;2022-12-16T06:32:19;17.35;;;11.73;;
13469;SDS011;6807;48.682;9.032;2022-12-16T06:35:04;21.08;;;12.90;;
13469;SDS011;6807;48.682;9.032;2022-12-16T06:37:49;18.75;;;11.52;;
13469;SDS011;6807;48.682;9.032;2022-12-16T06:40:34;22.48;;;12.98;;
13469;SDS011;6807;48.682;9.032;2022-12-16T06:43:18;18.95;;;11.07;;
13469;SDS011;6807;48.682;9.032;2022-12-16T06:46:03;16.70;;;9.55;;
13469;SDS011;6807;48.682;9.032;2022-12-16T06:48:49;20.70;;;12.68;;
13469;SDS011;6807;48.682;9.032;2022-12-16T06:51:33;22.40;;;12.95;;
13469;SDS011;6807;48.682;9.032;2022-12-16T06:54:17;23.13;;;12.35;;
13469;SDS011;6807;48.682;9.032;2022-12-16T06:57:01;20.88;;;12.48;;
13469;SDS011;6807;48.682;9.032;2022-12-16T06:59:46;23.70;;;13.63;;
13469;SDS011;6807;48.682;9.032;2022-12-16T07:02:30;27.20;;;14.27;;
13469;SDS011;6807;48.682;9.032;2022-12-16T07:05:23;24.17;;;14.27;;
13469;SDS011;6807;48.682;9.032;2022-12-16T07:10:56;19.67;;;13.07;;
13469;SDS011;6807;48.682;9.032;2022-12-16T07:13:40;21.48;;;12.63;;
13469;SDS011;6807;48.682;9.032;2022-12-16T07:16:26;20.10;;;12.77;;
13469;SDS011;6807;48.682;9.032;2022-12-16T07:19:11;20.75;;;13.40;;
13469;SDS011;6807;48.682;9.032;2022-12-16T07:21:57;21.98;;;12.23;;
13469;SDS011;6807;48.682;9.032;2022-12-16T07:24:41;32.08;;;13.00;;
13469;SDS011;6807;48.682;9.032;2022-12-16T07:27:26;20.67;;;12.85;;
13469;SDS011;6807;48.682;9.032;2022-12-16T07:30:11;19.65;;;11.82;;
13469;SDS011;6807;48.682;9.032;2022-12-16T07:32:55;19.20;;;12.60;;
13469;SDS011;6807;48.682;9.032;2022-12-16T07:35:41;18.33;;;11.80;;
13469;SDS011;6807;48.682;9.032;2022-12-16T07:38:28;21.60;;;12.57;;
13469;SDS011;6807;48.682;9.032;2022-12-16T07:41:12;20.65;;;12.07;;
13469;SDS011;6807;48.682;9.032;2022-12-16T07:51:52;20.33;;;11.55;;
13469;SDS011;6807;48.682;9.032;2022-12-16T07:54:39;20.70;;;10.93;;
13469;SDS011;6807;48.682;9.032;2022-12-16T07:57:25;20.20;;;14.18;;
13469;SDS011;6807;48.682;9.032;2022-12-16T08:00:10;16.20;;;10.45;;
13469;SDS011;6807;48.682;9.032;2022-12-16T08:02:55;16.88;;;11.00;;
13469;SDS011;6807;48.682;9.032;2022-12-16T08:05:39;16.73;;;10.88;;
13469;SDS011;6807;48.682;9.032;2022-12-16T08:08:24;17.77;;;10.88;;
13469;SDS011;6807;48.682;9.032;2022-12-16T08:11:10;21.40;;;12.20;;
13469;SDS011;6807;48.682;9.032;2022-12-16T08:14:02;18.38;;;11.65;;
13469;SDS011;6807;48.682;9.032;2022-12-16T08:16:48;17.90;;;11.80;;
13469;SDS011;6807;48.682;9.032;2022-12-16T08:19:32;14.90;;;9.73;;
13469;SDS011;6807;48.682;9.032;2022-12-16T08:22:17;15.52;;;9.13;;
13469;SDS011;6807;48.682;9.032;2022-12-16T08:25:01;19.48;;;11.80;;
13469;SDS011;6807;48.682;9.032;2022-12-16T08:27:53;17.38;;;10.07;;
13469;SDS011;6807;48.682;9.032;2022-12-16T08:30:38;18.70;;;9.85;;
13469;SDS011;6807;48.682;9.032;2022-12-16T08:33:22;17.10;;;9.85;;
13469;SDS011;6807;48.682;9.032;2022-12-16T08:36:07;16.63;;;10.00;;
13469;SDS011;6807;48.682;9.032;2022-12-16T08:38:52;15.90;;;10.55;;
13469;SDS011;6807;48.682;9.032;2022-12-16T08:41:36;16.67;;;10.55;;
13469;SDS011;6807;48.682;9.032;2022-12-16T08:44:38;17.50;;;10.85;;
13469;SDS011;6807;48.682;9.032;2022-12-16T08:47:22;17.17;;;10.23;;
13469;SDS011;6807;48.682;9.032;2022-12-16T08:50:06;16.70;;;9.75;;
13469;SDS011;6807;48.682;9.032;2022-12-16T08:53:05;17.80;;;10.55;;
13469;SDS011;6807;48.682;9.032;2022-12-16T08:55:51;15.73;;;9.73;;
13469;SDS011;6807;48.682;9.032;2022-12-16T08:58:35;16.02;;;9.43;;
13469;SDS011;6807;48.682;9.032;2022-12-16T09:01:21;16.42;;;9.98;;
13469;SDS011;6807;48.682;9.032;2022-12-16T09:04:05;15.32;;;9.35;;
13469;SDS011;6807;48.682;9.032;2022-12-16T09:06:50;17.05;;;10.05;;
13469;SDS011;6807;48.682;9.032;2022-12-16T09:09:35;15.98;;;9.80;;
13469;SDS011;6807;48.682;9.032;2022-12-16T09:12:19;16.02;;;8.77;;
13469;SDS011;6807;48.682;9.032;2022-12-16T09:15:04;13.57;;;8.50;;
13469;SDS011;6807;48.682;9.032;2022-12-16T09:17:53;14.85;;;9.40;;
13469;SDS011;6807;48.682;9.032;2022-12-16T09:20:38;16.90;;;8.70;;
13469;SDS011;6807;48.682;9.032;2022-12-16T09:23:24;17.95;;;8.82;;
13469;SDS011;6807;48.682;9.032;2022-12-16T09:26:10;12.85;;;9.10;;
13469;SDS011;6807;48.682;9.032;2022-12-16T09:28:54;12.80;;;8.07;;
13469;SDS011;6807;48.682;9.032;2022-12-16T09:31:38;13.73;;;9.35;;
13469;SDS011;6807;48.682;9.032;2022-12-16T09:34:24;15.85;;;9.77;;
13469;SDS011;6807;48.682;9.032;2022-12-16T09:37:10;13.98;;;8.30;;
13469;SDS011;6807;48.682;9.032;2022-12-16T09:39:57;11.25;;;7.72;;
13469;SDS011;6807;48.682;9.032;2022-12-16T09:42:43;12.40;;;7.65;;
13469;SDS011;6807;48.682;9.032;2022-12-16T09:45:52;15.88;;;7.50;;
13469;SDS011;6807;48.682;9.032;2022-12-16T09:48:44;9.77;;;6.97;;
13469;SDS011;6807;48.682;9.032;2022-12-16T09:51:36;12.73;;;7.80;;
13469;SDS011;6807;48.682;9.032;2022-12-16T09:54:23;11.15;;;7.70;;
13469;SDS011;6807;48.682;9.032;2022-12-16T09:57:11;10.02;;;6.75;;
13469;SDS011;6807;48.682;9.032;2022-12-16T10:00:03;11.52;;;7.45;;
13469;SDS011;6807;48.682;9.032;2022-12-16T10:02:50;11.88;;;6.50;;
13469;SDS011;6807;48.682;9.032;2022-12-16T10:05:38;9.05;;;6.07;;
13469;SDS011;6807;48.682;9.032;2022-12-16T10:08:33;13.98;;;8.75;;
13469;SDS011;6807;48.682;9.032;2022-12-16T10:11:33;11.25;;;6.88;;
13469;SDS011;6807;48.682;9.032;2022-12-16T10:14:30;11.07;;;6.93;;
13469;SDS011;6807;48.682;9.032;2022-12-16T10:17:23;11.98;;;7.35;;
13469;SDS011;6807;48.682;9.032;2022-12-16T10:20:11;12.60;;;6.55;;
13469;SDS011;6807;48.682;9.032;2022-12-16T10:23:01;8.80;;;6.45;;
13469;SDS011;6807;48.682;9.032;2022-12-16T10:25:55;11.15;;;6.47;;
13469;SDS011;6807;48.682;9.032;2022-12-16T10:28:51;10.32;;;6.53;;
13469;SDS011;6807;48.682;9.032;2022-12-16T10:31:40;10.80;;;7.28;;
13469;SDS011;6807;48.682;9.032;2022-12-16T10:34:27;11.52;;;7.03;;
13469;SDS011;6807;48.682;9.032;2022-12-16T10:37:13;10.73;;;7.07;;
13469;SDS011;6807;48.682;9.032;2022-12-16T10:40:05;11.07;;;6.57;;
13469;SDS011;6807;48.682;9.032;2022-12-16T10:43:00;11.48;;;7.60;;
13469;SDS011;6807;48.682;9.032;2022-12-16T10:45:48;10.27;;;6.82;;
13469;SDS011;6807;48.682;9.032;2022-12-16T10:48:34;12.10;;;6.75;;
13469;SDS011;6807;48.682;9.032;2022-12-16T10:51:20;12.27;;;6.47;;
13469;SDS011;6807;48.682;9.032;2022-12-16T10:54:14;12.32;;;7.45;;
13469;SDS011;6807;48.682;9.032;2022-12-16T10:57:08;12.95;;;7.10;;
13469;SDS011;6807;48.682;9.032;2022-12-16T11:00:08;9.40;;;6.03;;
13469;SDS011;6807;48.682;9.032;2022-12-16T11:02:54;9.60;;;6.47;;
13469;SDS011;6807;48.682;9.032;2022-12-16T11:05:39;8.52;;;6.43;;
13469;SDS011;6807;48.682;9.032;2022-12-16T11:11:51;9.40;;;6.28;;
13469;SDS011;6807;48.682;9.032;2022-12-16T11:14:35;8.73;;;5.97;;
13469;SDS011;6807;48.682;9.032;2022-12-16T11:17:21;13.63;;;7.25;;
13469;SDS011;6807;48.682;9.032;2022-12-16T11:23:18;8.40;;;6.18;;
13469;SDS011;6807;48.682;9.032;2022-12-16T11:26:11;8.55;;;5.63;;
13469;SDS011;6807;48.682;9.032;2022-12-16T11:29:03;11.73;;;7.07;;
13469;SDS011;6807;48.682;9.032;2022-12-16T11:34:53;11.13;;;7.10;;
13469;SDS011;6807;48.682;9.032;2022-12-16T11:37:40;10.32;;;7.28;;
13469;SDS011;6807;48.682;9.032;2022-12-16T11:40:27;11.45;;;7.32;;
13469;SDS011;6807;48.682;9.032;2022-12-16T11:43:16;9.60;;;6.18;;
13469;SDS011;6807;48.682;9.032;2022-12-16T11:46:02;8.70;;;5.95;;
13469;SDS011;6807;48.682;9.032;2022-12-16T11:48:53;10.68;;;6.55;;
13469;SDS011;6807;48.682;9.032;2022-12-16T11:51:52;10.35;;;7.43;;
13469;SDS011;6807;48.682;9.032;2022-12-16T11:54:39;12.43;;;7.53;;
13469;SDS011;6807;48.682;9.032;2022-12-16T11:57:43;8.88;;;5.85;;
13469;SDS011;6807;48.682;9.032;2022-12-16T12:00:45;8.70;;;5.90;;
13469;SDS011;6807;48.682;9.032;2022-12-16T12:03:41;8.93;;;6.78;;
13469;SDS011;6807;48.682;9.032;2022-12-16T12:06:29;10.20;;;5.60;;
13469;SDS011;6807;48.682;9.032;2022-12-16T12:09:20;8.95;;;5.63;;
13469;SDS011;6807;48.682;9.032;2022-12-16T12:12:10;6.72;;;5.15;;
13469;SDS011;6807;48.682;9.032;2022-12-16T12:15:07;10.25;;;6.28;;
13469;SDS011;6807;48.682;9.032;2022-12-16T12:17:57;9.18;;;5.80;;
13469;SDS011;6807;48.682;9.032;2022-12-16T12:20:49;10.10;;;6.13;;
13469;SDS011;6807;48.682;9.032;2022-12-16T12:23:44;7.30;;;5.53;;
13469;SDS011;6807;48.682;9.032;2022-12-16T12:26:37;8.75;;;6.40;;
13469;SDS011;6807;48.682;9.032;2022-12-16T12:29:31;9.52;;;6.00;;
13469;SDS011;6807;48.682;9.032;2022-12-16T13:01:50;13.50;;;7.45;;
13469;SDS011;6807;48.682;9.032;2022-12-16T13:04:40;11.07;;;6.15;;
13469;SDS011;6807;48.682;9.032;2022-12-16T13:07:30;10.35;;;7.10;;
13469;SDS011;6807;48.682;9.032;2022-12-16T13:10:30;8.85;;;5.60;;
13469;SDS011;6807;48.682;9.032;2022-12-16T13:13:33;8.50;;;6.45;;
13469;SDS011;6807;48.682;9.032;2022-12-16T13:22:45;8.85;;;6.50;;
13469;SDS011;6807;48.682;9.032;2022-12-16T13:25:31;10.20;;;6.82;;
13469;SDS011;6807;48.682;9.032;2022-12-16T13:31:11;11.38;;;6.60;;
13469;SDS011;6807;48.682;9.032;2022-12-16T13:33:58;11.02;;;6.63;;
13469;SDS011;6807;48.682;9.032;2022-12-16T13:36:59;10.15;;;7.13;;
13469;SDS011;6807;48.682;9.032;2022-12-16T13:39:58;12.63;;;6.65;;
13469;SDS011;6807;48.682;9.032;2022-12-16T13:42:53;13.60;;;7.75;;
13469;SDS011;6807;48.682;9.032;2022-12-16T13:45:39;14.45;;;8.10;;
13469;SDS011;6807;48.682;9.032;2022-12-16T13:48:36;10.77;;;7.10;;
13469;SDS011;6807;48.682;9.032;2022-12-16T13:54:50;11.15;;;7.10;;
13469;SDS011;6807;48.682;9.032;2022-12-16T13:57:42;11.98;;;7.75;;
13469;SDS011;6807;48.682;9.032;2022-12-16T14:00:29;10.70;;;6.97;;
13469;SDS011;6807;48.682;9.032;2022-12-16T14:03:22;11.40;;;7.40;;
13469;SDS011;6807;48.682;9.032;2022-12-16T14:06:28;9.90;;;7.07;;
13469;SDS011;6807;48.682;9.032;2022-12-16T14:09:31;10.02;;;6.80;;
13469;SDS011;6807;48.682;9.032;2022-12-16T14:15:18;8.57;;;5.85;;
13469;SDS011;6807;48.682;9.032;2022-12-16T14:18:14;7.35;;;5.13;;
13469;SDS011;6807;48.682;9.032;2022-12-16T14:21:12;8.90;;;5.03;;
13469;SDS011;6807;48.682;9.032;2022-12-16T14:24:05;10.50;;;6.53;;
13469;SDS011;6807;48.682;9.032;2022-12-16T14:26:53;8.35;;;5.50;;
13469;SDS011;6807;48.682;9.032;2022-12-16T14:29:41;6.45;;;5.20;;
13469;SDS011;6807;48.682;9.032;2022-12-16T14:32:32;8.05;;;5.63;;
13469;SDS011;6807;48.682;9.032;2022-12-16T14:37:45;9.50;;;5.35;;
13469;SDS011;6807;48.682;9.032;2022-12-16T14:40:30;9.13;;;6.13;;
13469;SDS011;6807;48.682;9.032;2022-12-16T14:43:21;11.27;;;6.40;;
13469;SDS011;6807;48.682;9.032;2022-12-16T14:46:16;10.02;;;6.18;;
13469;SDS011;6807;48.682;9.032;2022-12-16T14:49:13;7.32;;;5.82;;
13469;SDS011;6807;48.682;9.032;2022-12-16T14:52:11;7.57;;;5.47;;
13469;SDS011;6807;48.682;9.032;2022-12-16T14:54:59;8.38;;;5.50;;
13469;SDS011;6807;48.682;9.032;2022-12-16T14:58:00;9.65;;;6.07;;
13469;SDS011;6807;48.682;9.032;2022-12-16T15:00:53;9.60;;;6.07;;
13469;SDS011;6807;48.682;9.032;2022-12-16T15:06:15;11.25;;;6.43;;
13469;SDS011;6807;48.682;9.032;2022-12-16T15:09:07;9.73;;;5.78;;
13469;SDS011;6807;48.682;9.032;2022-12-16T15:12:00;8.68;;;6.07;;
13469;SDS011;6807;48.682;9.032;2022-12-16T15:14:45;7.72;;;5.22;;
13469;SDS011;6807;48.682;9.032;2022-12-16T15:17:51;8.52;;;6.13;;
13469;SDS011;6807;48.682;9.032;2022-12-16T15:20:44;8.73;;;5.50;;
13469;SDS011;6807;48.682;9.032;2022-12-16T15:23:41;11.20;;;5.80;;
13469;SDS011;6807;48.682;9.032;2022-12-16T15:26:28;9.02;;;5.75;;
13469;SDS011;6807;48.682;9.032;2022-12-16T15:29:25;7.43;;;5.28;;
13469;SDS011;6807;48.682;9.032;2022-12-16T15:32:29;10.73;;;6.20;;
13469;SDS011;6807;48.682;9.032;2022-12-16T15:35:24;9.65;;;6.35;;
13469;SDS011;6807;48.682;9.032;2022-12-16T15:38:17;8.23;;;5.93;;
13469;SDS011;6807;48.682;9.032;2022-12-16T15:41:22;8.48;;;5.70;;
13469;SDS011;6807;48.682;9.032;2022-12-16T15:44:15;11.20;;;6.75;;
13469;SDS011;6807;48.682;9.032;2022-12-16T15:47:03;12.63;;;7.05;;
13469;SDS011;6807;48.682;9.032;2022-12-16T15:49:50;9.35;;;6.05;;
13469;SDS011;6807;48.682;9.032;2022-12-16T15:52:38;8.63;;;6.43;;
13469;SDS011;6807;48.682;9.032;2022-12-16T15:55:32;8.65;;;6.10;;
13469;SDS011;6807;48.682;9.032;2022-12-16T15:58:20;9.50;;;6.10;;
13469;SDS011;6807;48.682;9.032;2022-12-16T16:01:08;11.82;;;6.88;;
13469;SDS011;6807;48.682;9.032;2022-12-16T16:03:54;6.93;;;5.75;;
13469;SDS011;6807;48.682;9.032;2022-12-16T16:06:44;10.98;;;6.63;;
13469;SDS011;6807;48.682;9.032;2022-12-16T16:09:34;10.68;;;6.55;;
13469;SDS011;6807;48.682;9.032;2022-12-16T16:12:20;13.10;;;9.18;;
13469;SDS011;6807;48.682;9.032;2022-12-16T16:15:07;12.77;;;8.15;;
13469;SDS011;6807;48.682;9.032;2022-12-16T16:17:55;13.73;;;9.65;;
13469;SDS011;6807;48.682;9.032;2022-12-16T16:20:46;15.23;;;8.13;;
13469;SDS011;6807;48.682;9.032;2022-12-16T16:23:32;9.65;;;6.90;;
13469;SDS011;6807;48.682;9.032;2022-12-16T16:26:19;9.77;;;7.05;;
13469;SDS011;6807;48.682;9.032;2022-12-16T16:29:05;10.80;;;6.97;;
13469;SDS011;6807;48.682;9.032;2022-12-16T16:31:55;13.30;;;7.07;;
13469;SDS011;6807;48.682;9.032;2022-12-16T16:34:50;11.30;;;7.05;;
13469;SDS011;6807;48.682;9.032;2022-12-16T16:37:35;11.65;;;6.68;;
13469;SDS011;6807;48.682;9.032;2022-12-16T16:40:21;9.55;;;6.68;;
13469;SDS011;6807;48.682;9.032;2022-12-16T16:43:11;12.98;;;7.38;;
13469;SDS011;6807;48.682;9.032;2022-12-16T16:46:13;11.30;;;6.40;;
13469;SDS011;6807;48.682;9.032;2022-12-16T16:49:21;14.38;;;7.22;;
13469;SDS011;6807;48.682;9.032;2022-12-16T16:52:10;11.40;;;7.55;;
13469;SDS011;6807;48.682;9.032;2022-12-16T16:54:56;15.07;;;10.00;;
13469;SDS011;6807;48.682;9.032;2022-12-16T16:57:43;13.23;;;7.93;;
13469;SDS011;6807;48.682;9.032;2022-12-16T17:00:27;18.02;;;8.68;;
13469;SDS011;6807;48.682;9.032;2022-12-16T17:03:17;14.60;;;8.30;;
13469;SDS011;6807;48.682;9.032;2022-12-16T17:06:07;12.98;;;8.30;;
13469;SDS011;6807;48.682;9.032;2022-12-16T17:08:52;15.23;;;8.27;;
13469;SDS011;6807;48.682;9.032;2022-12-16T17:11:41;13.38;;;8.60;;
13469;SDS011;6807;48.682;9.032;2022-12-16T17:14:26;11.85;;;7.45;;
13469;SDS011;6807;48.682;9.032;2022-12-16T17:17:10;13.25;;;8.48;;
13469;SDS011;6807;48.682;9.032;2022-12-16T17:19:55;15.02;;;8.63;;
13469;SDS011;6807;48.682;9.032;2022-12-16T17:22:42;11.05;;;7.45;;
13469;SDS011;6807;48.682;9.032;2022-12-16T17:25:26;13.02;;;8.82;;
13469;SDS011;6807;48.682;9.032;2022-12-16T17:28:11;11.70;;;7.80;;
13469;SDS011;6807;48.682;9.032;2022-12-16T17:30:55;13.75;;;7.65;;
13469;SDS011;6807;48.682;9.032;2022-12-16T17:33:41;10.70;;;7.88;;
13469;SDS011;6807;48.682;9.032;2022-12-16T17:36:25;11.68;;;8.00;;
13469;SDS011;6807;48.682;9.032;2022-12-16T17:39:11;13.05;;;8.55;;
13469;SDS011;6807;48.682;9.032;2022-12-16T17:41:56;14.55;;;8.70;;
13469;SDS011;6807;48.682;9.032;2022-12-16T17:44:40;13.20;;;8.30;;
13469;SDS011;6807;48.682;9.032;2022-12-16T17:47:27;13.38;;;8.30;;